createdAt,value
2018-03-28T00:00:13.988Z,40.23
2018-03-28T00:01:13.850Z,40.03
2018-03-28T00:02:13.842Z,40.14
2018-03-28T00:03:13.828Z,40.12
2018-03-28T00:04:13.688Z,39.65
2018-03-28T00:05:13.658Z,39.74
2018-03-28T00:06:13.627Z,39.74
2018-03-28T00:07:13.599Z,39.45
2018-03-28T00:08:13.603Z,38.98
2018-03-28T00:09:13.554Z,38.79
2018-03-28T00:10:13.507Z,38.79
2018-03-28T00:11:13.531Z,38.98
2018-03-28T00:12:13.459Z,38.79
2018-03-28T00:13:13.420Z,38.71
2018-03-28T00:14:13.405Z,38.31
2018-03-28T00:15:13.440Z,38.43
2018-03-28T00:16:13.331Z,38.03
2018-03-28T00:17:13.299Z,38.51
2018-03-28T00:18:13.273Z,38.31
2018-03-28T00:19:13.235Z,38.41
2018-03-28T00:20:13.214Z,38.51
2018-03-28T00:21:13.266Z,38.81
2018-03-28T00:22:13.753Z,37.93
2018-03-28T00:23:13.110Z,37.76
2018-03-28T00:24:13.115Z,38.24
2018-03-28T00:25:13.052Z,37.67
2018-03-28T00:26:13.114Z,37.76
2018-03-28T00:27:13.025Z,37.67
2018-03-28T00:28:12.980Z,37.37
2018-03-28T00:29:12.936Z,37.55
2018-03-28T00:30:12.929Z,37.19
2018-03-28T00:31:12.883Z,37.48
2018-03-28T00:32:12.845Z,37.57
2018-03-28T00:33:12.955Z,37.19
2018-03-28T00:34:12.797Z,37.18
2018-03-28T00:35:12.766Z,37.27
2018-03-28T00:36:12.749Z,37.08
2018-03-28T00:37:12.694Z,36.81
2018-03-28T00:38:12.670Z,36.62
2018-03-28T00:39:12.649Z,36.81
2018-03-28T00:40:12.633Z,36.81
2018-03-28T00:41:12.575Z,36.53
2018-03-28T00:42:12.613Z,36.72
2018-03-28T00:43:12.587Z,36.91
2018-03-28T00:44:12.492Z,37.10
2018-03-28T00:45:12.468Z,36.81
2018-03-28T00:46:12.449Z,36.53
2018-03-28T00:47:12.407Z,36.53
2018-03-28T00:48:12.406Z,36.53
2018-03-28T00:49:12.365Z,36.72
2018-03-28T00:50:12.306Z,36.72
2018-03-28T00:51:12.279Z,37.19
2018-03-28T00:52:12.248Z,36.72
2018-03-28T00:53:12.216Z,36.72
2018-03-28T00:54:12.190Z,36.72
2018-03-28T00:55:12.168Z,37.19
2018-03-28T00:56:12.172Z,37.48
2018-03-28T00:57:12.109Z,37.38
2018-03-28T00:58:12.066Z,37.29
2018-03-28T00:59:12.043Z,37.10
2018-03-28T01:00:12.035Z,37.48
2018-03-28T01:01:12.113Z,37.10
2018-03-28T01:02:11.950Z,37.19
2018-03-28T01:03:12.007Z,37.48
2018-03-28T01:04:11.894Z,37.19
2018-03-28T01:05:11.861Z,37.19
2018-03-28T01:06:11.852Z,37.67
2018-03-28T01:07:11.886Z,37.48
2018-03-28T01:08:11.771Z,37.57
2018-03-28T01:09:11.916Z,37.48
2018-03-28T01:10:11.805Z,37.48
2018-03-28T01:11:11.706Z,37.38
2018-03-28T01:12:11.665Z,37.48
2018-03-28T01:13:11.628Z,37.38
2018-03-28T01:14:11.603Z,37.38
2018-03-28T01:15:11.576Z,37.19
2018-03-28T01:16:11.532Z,37.19
2018-03-28T01:17:11.675Z,37.38
2018-03-28T01:18:11.624Z,37.38
2018-03-28T01:19:11.448Z,37.29
2018-03-28T01:20:11.411Z,37.29
2018-03-28T01:21:11.492Z,37.29
2018-03-28T01:22:11.423Z,37.10
2018-03-28T01:23:11.428Z,37.10
2018-03-28T01:24:11.388Z,36.72
2018-03-28T01:25:11.564Z,36.72
2018-03-28T01:28:30.066Z,36.53
2018-03-28T01:29:29.986Z,36.72
2018-03-28T01:31:36.279Z,36.91
2018-03-28T01:32:35.731Z,36.62
2018-03-28T01:34:41.377Z,36.62
2018-03-28T01:35:40.438Z,36.62
2018-03-28T01:38:00.141Z,36.72
2018-03-28T01:39:00.010Z,36.72
2018-03-28T01:41:18.314Z,37.00
2018-03-28T01:42:19.832Z,36.72
2018-03-28T01:44:46.852Z,36.91
2018-03-28T01:45:45.560Z,37.00
2018-03-28T01:47:50.218Z,37.38
2018-03-28T01:48:50.136Z,37.48
2018-03-28T01:49:51.041Z,37.38
2018-03-28T01:50:50.545Z,37.00
2018-03-28T01:51:51.230Z,36.62
2018-03-28T01:52:50.992Z,36.53
2018-03-28T01:53:50.446Z,36.53
2018-03-28T01:54:51.517Z,36.62
2018-03-28T01:55:51.015Z,36.15
2018-03-28T01:56:49.862Z,36.15
2018-03-28T01:57:49.297Z,36.24
2018-03-28T01:58:50.306Z,36.33
2018-03-28T01:59:50.827Z,36.53
2018-03-28T02:00:51.183Z,36.43
2018-03-28T02:01:50.068Z,36.33
2018-03-28T02:02:49.683Z,36.62
2018-03-28T02:03:50.433Z,36.53
2018-03-28T02:04:51.929Z,36.53
2018-03-28T02:05:50.526Z,37.10
2018-03-28T02:06:49.574Z,37.38
2018-03-28T02:07:49.902Z,37.38
2018-03-28T02:08:49.413Z,37.67
2018-03-28T02:09:49.539Z,37.48
2018-03-28T02:10:50.507Z,37.67
2018-03-28T02:11:49.535Z,38.71
2018-03-28T02:12:54.553Z,38.81
2018-03-28T02:13:54.708Z,38.81
2018-03-28T02:14:56.093Z,39.86
2018-03-28T02:15:54.705Z,40.14
2018-03-28T02:18:33.710Z,39.95
2018-03-28T02:19:33.346Z,40.23
2018-03-28T02:21:40.075Z,40.05
2018-03-28T02:22:40.316Z,40.23
2018-03-28T02:24:55.004Z,40.14
2018-03-28T02:25:55.483Z,41.19
2018-03-28T02:27:55.718Z,41.85
2018-03-28T02:28:56.516Z,41.09
2018-03-28T02:29:58.218Z,41.09
2018-03-28T02:30:55.384Z,41.09
2018-03-28T02:31:56.479Z,40.90
2018-03-28T02:32:55.331Z,40.71
2018-03-28T02:33:57.124Z,40.62
2018-03-28T02:34:56.550Z,40.33
2018-03-28T02:35:56.349Z,40.14
2018-03-28T02:36:56.236Z,40.33
2018-03-28T02:37:56.214Z,40.23
2018-03-28T02:38:55.569Z,40.05
2018-03-28T02:39:54.588Z,40.23
2018-03-28T02:40:55.367Z,40.23
2018-03-28T02:41:55.858Z,40.23
2018-03-28T02:42:54.492Z,40.52
2018-03-28T02:43:55.355Z,40.14
2018-03-28T02:44:55.738Z,40.14
2018-03-28T02:45:54.788Z,40.14
2018-03-28T02:46:55.774Z,40.33
2018-03-28T02:47:56.181Z,39.67
2018-03-28T02:48:56.253Z,39.86
2018-03-28T02:49:55.766Z,39.76
2018-03-28T02:50:55.866Z,39.76
2018-03-28T02:51:54.625Z,39.67
2018-03-28T02:52:55.759Z,39.76
2018-03-28T02:53:55.374Z,39.76
2018-03-28T02:54:54.710Z,39.86
2018-03-28T02:55:54.836Z,39.76
2018-03-28T02:56:54.147Z,39.67
2018-03-28T02:57:57.163Z,39.76
2018-03-28T02:58:53.691Z,39.95
2018-03-28T02:59:53.519Z,40.52
2018-03-28T03:00:53.483Z,40.90
2018-03-28T03:01:53.456Z,41.47
2018-03-28T03:02:53.442Z,41.95
2018-03-28T03:03:53.383Z,41.47
2018-03-28T03:04:53.353Z,41.47
2018-03-28T03:05:53.322Z,40.90
2018-03-28T03:06:53.303Z,40.71
2018-03-28T03:07:53.268Z,40.90
2018-03-28T03:08:53.235Z,40.71
2018-03-28T03:09:53.204Z,40.71
2018-03-28T03:10:53.180Z,40.52
2018-03-28T03:11:53.156Z,40.52
2018-03-28T03:12:53.122Z,40.43
2018-03-28T03:13:53.088Z,41.28
2018-03-28T03:14:53.059Z,41.95
2018-03-28T03:15:53.040Z,42.64
2018-03-28T03:16:53.000Z,43.21
2018-03-28T03:17:52.969Z,43.19
2018-03-28T03:18:52.941Z,43.47
2018-03-28T03:19:52.916Z,42.99
2018-03-28T03:20:52.877Z,43.09
2018-03-28T03:21:52.851Z,43.28
2018-03-28T03:22:52.817Z,43.97
2018-03-28T03:23:52.786Z,44.35
2018-03-28T03:24:52.760Z,44.42
2018-03-28T03:25:52.728Z,44.33
2018-03-28T03:26:52.701Z,44.13
2018-03-28T03:27:52.675Z,43.66
2018-03-28T03:28:52.653Z,44.04
2018-03-28T03:29:52.612Z,44.13
2018-03-28T03:30:52.588Z,43.85
2018-03-28T03:31:52.553Z,43.28
2018-03-28T03:32:52.522Z,43.57
2018-03-28T03:33:52.514Z,42.99
2018-03-28T03:34:52.466Z,42.90
2018-03-28T03:35:52.430Z,42.71
2018-03-28T03:36:52.464Z,42.61
2018-03-28T03:37:52.369Z,42.80
2018-03-28T03:38:52.343Z,42.14
2018-03-28T03:39:52.320Z,42.90
2018-03-28T03:40:52.290Z,42.71
2018-03-28T03:41:52.251Z,43.28
2018-03-28T03:42:52.230Z,43.47
2018-03-28T03:43:52.202Z,42.99
2018-03-28T03:44:52.166Z,42.99
2018-03-28T03:45:52.133Z,41.95
2018-03-28T03:46:52.127Z,41.85
2018-03-28T03:47:52.073Z,41.47
2018-03-28T03:48:52.044Z,41.09
2018-03-28T03:49:52.018Z,40.71
2018-03-28T03:50:51.994Z,41.00
2018-03-28T03:51:51.954Z,41.00
2018-03-28T03:52:51.925Z,40.90
2018-03-28T03:53:51.894Z,41.00
2018-03-28T03:54:51.865Z,40.90
2018-03-28T03:55:51.944Z,41.38
2018-03-28T03:56:51.810Z,41.28
2018-03-28T03:57:51.785Z,41.57
2018-03-28T03:58:51.825Z,42.90
2018-03-28T03:59:51.719Z,43.19
2018-03-28T04:00:51.682Z,44.23
2018-03-28T04:01:51.755Z,43.95
2018-03-28T04:02:51.625Z,44.23
2018-03-28T04:03:51.593Z,43.97
2018-03-28T04:04:51.562Z,43.95
2018-03-28T04:05:51.533Z,44.13
2018-03-28T04:06:51.519Z,43.66
2018-03-28T04:07:51.481Z,43.66
2018-03-28T04:08:51.453Z,44.04
2018-03-28T04:09:51.418Z,44.35
2018-03-28T04:10:51.388Z,44.61
2018-03-28T04:11:51.394Z,44.33
2018-03-28T04:12:51.353Z,43.66
2018-03-28T04:13:51.299Z,43.57
2018-03-28T04:14:51.308Z,43.19
2018-03-28T04:15:51.233Z,42.71
2018-03-28T04:16:51.208Z,42.52
2018-03-28T04:17:51.203Z,42.33
2018-03-28T04:18:51.144Z,44.13
2018-03-28T04:19:51.116Z,43.66
2018-03-28T04:20:51.088Z,42.61
2018-03-28T04:21:51.051Z,42.71
2018-03-28T04:22:51.026Z,43.28
2018-03-28T04:23:51.007Z,42.99
2018-03-28T04:24:50.970Z,42.24
2018-03-28T04:25:50.943Z,43.09
2018-03-28T04:26:50.907Z,42.61
2018-03-28T04:27:50.878Z,42.80
2018-03-28T04:28:50.874Z,43.28
2018-03-28T04:29:50.817Z,42.71
2018-03-28T04:30:50.868Z,42.61
2018-03-28T04:31:50.858Z,42.80
2018-03-28T04:32:50.730Z,42.71
2018-03-28T04:33:50.698Z,42.33
2018-03-28T04:34:50.669Z,42.80
2018-03-28T04:35:50.640Z,42.14
2018-03-28T04:36:50.604Z,42.33
2018-03-28T04:37:50.575Z,41.95
2018-03-28T04:38:50.550Z,41.38
2018-03-28T04:39:50.520Z,41.95
2018-03-28T04:40:50.489Z,41.38
2018-03-28T04:41:50.458Z,41.00
2018-03-28T04:42:50.448Z,40.23
2018-03-28T04:43:50.414Z,40.05
2018-03-28T04:44:50.373Z,39.67
2018-03-28T04:45:50.342Z,39.57
2018-03-28T04:46:50.316Z,39.09
2018-03-28T04:47:50.278Z,38.71
2018-03-28T04:48:50.289Z,38.62
2018-03-28T04:49:50.214Z,38.24
2018-03-28T04:50:50.190Z,38.53
2018-03-28T04:51:50.158Z,37.95
2018-03-28T04:52:50.136Z,37.76
2018-03-28T04:53:50.092Z,38.43
2018-03-28T04:54:50.065Z,37.95
2018-03-28T04:55:50.046Z,37.48
2018-03-28T04:56:50.016Z,37.19
2018-03-28T04:57:49.982Z,37.48
2018-03-28T04:58:49.953Z,37.38
2018-03-28T04:59:49.944Z,37.00
2018-03-28T05:00:49.890Z,37.00
2018-03-28T05:01:49.856Z,36.91
2018-03-28T05:02:49.827Z,37.29
2018-03-28T05:03:49.805Z,37.19
2018-03-28T05:04:49.773Z,37.19
2018-03-28T05:05:49.849Z,37.38
2018-03-28T05:06:49.707Z,38.05
2018-03-28T05:07:49.681Z,38.41
2018-03-28T05:08:49.658Z,38.51
2018-03-28T05:09:49.619Z,38.43
2018-03-28T05:10:49.600Z,38.34
2018-03-28T05:11:49.580Z,38.43
2018-03-28T05:12:49.531Z,38.53
2018-03-28T05:13:49.571Z,39.09
2018-03-28T05:14:49.524Z,39.67
2018-03-28T05:15:49.476Z,39.86
2018-03-28T05:16:49.404Z,39.95
2018-03-28T05:17:49.381Z,41.38
2018-03-28T05:18:49.354Z,41.83
2018-03-28T05:19:49.321Z,41.28
2018-03-28T05:20:49.288Z,41.28
2018-03-28T05:21:49.265Z,42.24
2018-03-28T05:22:49.231Z,42.14
2018-03-28T05:23:49.199Z,42.99
2018-03-28T05:24:49.168Z,43.47
2018-03-28T05:25:49.140Z,43.19
2018-03-28T05:26:49.108Z,44.33
2018-03-28T05:27:49.100Z,43.76
2018-03-28T05:28:49.041Z,43.19
2018-03-28T05:29:49.020Z,42.90
2018-03-28T05:30:48.988Z,43.47
2018-03-28T05:31:48.958Z,43.57
2018-03-28T05:32:48.927Z,43.76
2018-03-28T05:33:48.988Z,43.28
2018-03-28T05:34:48.862Z,43.66
2018-03-28T05:35:48.837Z,43.57
2018-03-28T05:36:48.805Z,43.38
2018-03-28T05:37:48.778Z,43.57
2018-03-28T05:38:48.743Z,43.09
2018-03-28T05:39:48.721Z,42.71
2018-03-28T05:40:48.689Z,42.52
2018-03-28T05:41:48.657Z,42.80
2018-03-28T05:42:48.667Z,42.52
2018-03-28T05:43:48.605Z,41.85
2018-03-28T05:44:48.596Z,42.71
2018-03-28T05:45:48.527Z,42.90
2018-03-28T05:46:48.502Z,42.90
2018-03-28T05:47:48.475Z,42.52
2018-03-28T05:48:48.437Z,42.99
2018-03-28T05:49:48.409Z,42.80
2018-03-28T05:50:48.378Z,43.09
2018-03-28T05:51:48.357Z,42.71
2018-03-28T05:52:48.325Z,42.71
2018-03-28T05:53:48.297Z,43.09
2018-03-28T05:54:48.281Z,43.19
2018-03-28T05:55:48.350Z,42.71
2018-03-28T05:56:48.208Z,42.99
2018-03-28T05:57:48.172Z,42.80
2018-03-28T05:58:48.146Z,42.71
2018-03-28T05:59:48.113Z,42.61
2018-03-28T06:00:48.083Z,43.09
2018-03-28T06:01:48.057Z,43.66
2018-03-28T06:02:48.015Z,43.19
2018-03-28T06:03:47.996Z,43.57
2018-03-28T06:04:47.961Z,43.47
2018-03-28T06:05:47.930Z,43.09
2018-03-28T06:06:47.904Z,42.99
2018-03-28T06:07:47.867Z,42.24
2018-03-28T06:08:47.836Z,42.14
2018-03-28T06:09:47.810Z,42.24
2018-03-28T06:10:47.779Z,43.28
2018-03-28T06:11:47.762Z,42.80
2018-03-28T06:12:47.715Z,43.28
2018-03-28T06:13:47.687Z,43.19
2018-03-28T06:14:47.670Z,43.09
2018-03-28T06:15:47.631Z,43.76
2018-03-28T06:16:47.616Z,44.23
2018-03-28T06:17:47.571Z,44.13
2018-03-28T06:18:47.542Z,44.23
2018-03-28T06:19:47.513Z,44.80
2018-03-28T06:20:47.486Z,45.00
2018-03-28T06:21:47.458Z,44.33
2018-03-28T06:22:47.526Z,44.52
2018-03-28T06:23:47.455Z,43.85
2018-03-28T06:24:47.366Z,44.42
2018-03-28T06:25:47.331Z,43.95
2018-03-28T06:26:47.295Z,44.71
2018-03-28T06:27:47.272Z,44.23
2018-03-28T06:28:47.259Z,45.18
2018-03-28T06:29:47.204Z,45.09
2018-03-28T06:30:47.177Z,44.90
2018-03-28T06:31:47.208Z,45.18
2018-03-28T06:32:47.140Z,44.90
2018-03-28T06:33:47.096Z,45.56
2018-03-28T06:34:47.188Z,44.90
2018-03-28T06:35:47.035Z,46.04
2018-03-28T06:36:47.005Z,46.04
2018-03-28T06:37:46.990Z,46.61
2018-03-28T06:38:46.943Z,46.23
2018-03-28T06:39:46.946Z,47.09
2018-03-28T06:40:46.879Z,47.18
2018-03-28T06:41:46.854Z,47.28
2018-03-28T06:42:46.821Z,47.66
2018-03-28T06:43:46.788Z,46.99
2018-03-28T06:44:46.766Z,47.47
2018-03-28T06:45:46.733Z,46.99
2018-03-28T06:46:46.753Z,47.28
2018-03-28T06:47:46.672Z,47.94
2018-03-28T06:48:46.645Z,46.80
2018-03-28T06:49:46.618Z,46.99
2018-03-28T06:50:46.587Z,46.99
2018-03-28T06:51:46.555Z,47.28
2018-03-28T06:52:46.527Z,48.23
2018-03-28T06:53:46.495Z,47.66
2018-03-28T06:54:46.468Z,47.37
2018-03-28T06:55:46.432Z,47.47
2018-03-28T06:56:46.401Z,46.89
2018-03-28T06:57:46.368Z,47.09
2018-03-28T06:58:46.347Z,47.56
2018-03-28T06:59:46.376Z,47.94
2018-03-28T07:00:46.311Z,48.61
2018-03-28T07:01:46.250Z,48.44
2018-03-28T07:02:46.220Z,48.54
2018-03-28T07:03:46.202Z,49.46
2018-03-28T07:04:46.212Z,49.40
2018-03-28T07:05:46.137Z,49.77
2018-03-28T07:06:46.105Z,50.73
2018-03-28T07:07:46.074Z,52.82
2018-03-28T07:08:46.048Z,55.01
2018-03-28T07:09:46.020Z,56.24
2018-03-28T07:10:45.997Z,56.34
2018-03-28T07:11:45.954Z,55.39
2018-03-28T07:12:45.933Z,55.87
2018-03-28T07:13:45.903Z,54.91
2018-03-28T07:14:47.458Z,55.51
2018-03-28T07:15:45.840Z,56.15
2018-03-28T07:16:45.812Z,56.34
2018-03-28T07:17:45.783Z,55.20
2018-03-28T07:18:45.753Z,55.90
2018-03-28T07:19:45.729Z,57.29
2018-03-28T07:20:45.763Z,56.72
2018-03-28T07:21:45.667Z,58.25
2018-03-28T07:22:45.639Z,58.53
2018-03-28T07:23:45.607Z,57.13
2018-03-28T07:24:45.578Z,56.05
2018-03-28T07:25:45.624Z,56.15
2018-03-28T07:26:45.602Z,55.77
2018-03-28T07:27:45.533Z,55.10
2018-03-28T07:28:45.476Z,55.29
2018-03-28T07:29:45.598Z,56.56
2018-03-28T07:30:45.405Z,56.15
2018-03-28T07:31:45.431Z,55.58
2018-03-28T07:32:45.354Z,56.15
2018-03-28T07:33:45.314Z,56.15
2018-03-28T07:34:45.284Z,55.96
2018-03-28T07:35:45.258Z,54.82
2018-03-28T07:36:45.303Z,56.15
2018-03-28T07:37:45.219Z,54.25
2018-03-28T07:38:45.173Z,53.49
2018-03-28T07:39:45.179Z,55.42
2018-03-28T07:40:45.112Z,56.18
2018-03-28T07:41:45.096Z,56.94
2018-03-28T07:42:45.063Z,57.23
2018-03-28T07:43:45.026Z,57.80
2018-03-28T07:44:45.104Z,55.68
2018-03-28T07:45:44.968Z,55.77
2018-03-28T07:46:44.936Z,55.49
2018-03-28T07:47:44.920Z,54.85
2018-03-28T07:48:44.878Z,56.37
2018-03-28T07:49:44.847Z,56.63
2018-03-28T07:50:44.818Z,56.18
2018-03-28T07:51:44.798Z,56.18
2018-03-28T07:52:44.775Z,56.37
2018-03-28T07:53:44.747Z,57.13
2018-03-28T07:54:44.709Z,57.70
2018-03-28T07:55:44.680Z,56.85
2018-03-28T07:56:44.739Z,56.09
2018-03-28T07:57:44.622Z,57.32
2018-03-28T07:58:44.763Z,57.13
2018-03-28T07:59:44.559Z,54.85
2018-03-28T08:00:44.537Z,56.18
2018-03-28T08:01:44.506Z,55.70
2018-03-28T08:02:44.470Z,55.13
2018-03-28T08:03:44.443Z,55.04
2018-03-28T08:04:44.411Z,55.42
2018-03-28T08:05:44.382Z,54.85
2018-03-28T08:06:44.353Z,55.99
2018-03-28T08:07:44.326Z,58.65
2018-03-28T08:08:44.326Z,59.03
2018-03-28T08:09:44.343Z,59.80
2018-03-28T08:10:44.248Z,58.65
2018-03-28T08:11:44.209Z,58.08
2018-03-28T08:12:44.181Z,58.37
2018-03-28T08:13:44.159Z,58.47
2018-03-28T08:14:44.126Z,58.28
2018-03-28T08:15:44.095Z,60.18
2018-03-28T08:16:44.070Z,60.94
2018-03-28T08:17:44.043Z,60.66
2018-03-28T08:18:44.011Z,61.93
2018-03-28T08:19:43.982Z,62.49
2018-03-28T08:20:43.979Z,63.92
2018-03-28T08:21:43.927Z,70.59
2018-03-28T08:22:43.899Z,72.69
2018-03-28T08:23:43.861Z,72.21
2018-03-28T08:24:43.832Z,72.12
2018-03-28T08:25:43.822Z,77.17
2018-03-28T08:26:43.782Z,76.03
2018-03-28T08:27:43.745Z,75.36
2018-03-28T08:28:43.734Z,77.26
2018-03-28T08:29:43.687Z,77.64
2018-03-28T08:30:43.661Z,77.17
2018-03-28T08:31:43.638Z,74.98
2018-03-28T08:32:43.606Z,74.88
2018-03-28T08:33:43.583Z,76.40
2018-03-28T08:34:43.548Z,78.06
2018-03-28T08:35:43.526Z,77.49
2018-03-28T08:36:43.492Z,79.21
2018-03-28T08:37:43.469Z,76.82
2018-03-28T08:38:43.438Z,78.83
2018-03-28T08:39:43.408Z,77.87
2018-03-28T08:40:43.382Z,76.35
2018-03-28T08:41:43.355Z,78.44
2018-03-28T08:42:43.322Z,77.78
2018-03-28T08:43:43.303Z,78.64
2018-03-28T08:44:43.262Z,78.06
2018-03-28T08:45:43.237Z,79.02
2018-03-28T08:46:43.230Z,76.44
2018-03-28T08:47:43.190Z,76.73
2018-03-28T08:48:43.158Z,79.88
2018-03-28T08:49:43.131Z,77.11
2018-03-28T08:50:43.111Z,78.73
2018-03-28T08:51:43.072Z,77.59
2018-03-28T08:52:43.044Z,77.83
2018-03-28T08:53:43.021Z,77.45
2018-03-28T08:54:42.991Z,76.59
2018-03-28T08:55:42.954Z,77.30
2018-03-28T08:56:42.934Z,75.64
2018-03-28T08:57:42.899Z,77.97
2018-03-28T08:58:42.868Z,77.83
2018-03-28T08:59:42.839Z,76.40
2018-03-28T09:00:42.816Z,76.79
2018-03-28T09:01:42.782Z,76.16
2018-03-28T09:02:42.760Z,77.11
2018-03-28T09:03:42.734Z,78.25
2018-03-28T09:04:42.704Z,76.16
2018-03-28T09:05:42.677Z,77.69
2018-03-28T09:06:42.646Z,78.44
2018-03-28T09:07:42.622Z,78.54
2018-03-28T09:08:42.591Z,78.06
2018-03-28T09:09:42.568Z,78.54
2018-03-28T09:10:42.554Z,77.59
2018-03-28T09:11:42.507Z,76.64
2018-03-28T09:12:42.480Z,78.06
2018-03-28T09:13:42.443Z,77.74
2018-03-28T09:14:42.417Z,75.84
2018-03-28T09:15:42.394Z,74.31
2018-03-28T09:16:42.370Z,75.84
2018-03-28T09:17:42.349Z,73.93
2018-03-28T09:18:42.314Z,76.73
2018-03-28T09:19:42.278Z,76.40
2018-03-28T09:20:42.248Z,76.54
2018-03-28T09:21:42.222Z,77.11
2018-03-28T09:22:42.251Z,77.59
2018-03-28T09:23:42.164Z,78.64
2018-03-28T09:24:42.146Z,78.73
2018-03-28T09:25:42.107Z,77.30
2018-03-28T09:26:42.087Z,79.06
2018-03-28T09:27:42.063Z,78.35
2018-03-28T09:28:42.038Z,77.87
2018-03-28T09:29:42.000Z,77.30
2018-03-28T09:30:41.974Z,78.73
2018-03-28T09:31:41.945Z,76.73
2018-03-28T09:32:41.931Z,77.59
2018-03-28T09:33:41.889Z,77.87
2018-03-28T09:34:41.862Z,81.68
2018-03-28T09:35:41.838Z,79.49
2018-03-28T09:36:41.806Z,79.11
2018-03-28T09:37:41.774Z,81.02
2018-03-28T09:38:41.747Z,79.11
2018-03-28T09:39:41.751Z,78.83
2018-03-28T09:40:41.692Z,79.68
2018-03-28T09:41:41.659Z,77.49
2018-03-28T09:42:41.634Z,78.73
2018-03-28T09:43:41.612Z,78.06
2018-03-28T09:44:41.582Z,77.36
2018-03-28T09:45:41.601Z,77.17
2018-03-28T09:46:41.527Z,77.30
2018-03-28T09:47:41.502Z,77.01
2018-03-28T09:48:41.469Z,79.11
2018-03-28T09:49:41.448Z,78.64
2018-03-28T09:50:41.435Z,79.11
2018-03-28T09:51:41.532Z,77.59
2018-03-28T09:52:41.709Z,79.11
2018-03-28T09:53:41.323Z,79.68
2018-03-28T09:54:41.335Z,79.68
2018-03-28T09:55:41.268Z,79.63
2018-03-28T09:56:41.243Z,80.16
2018-03-28T09:57:41.236Z,79.44
2018-03-28T09:58:41.186Z,80.87
2018-03-28T09:59:41.175Z,79.59
2018-03-28T10:01:09.060Z,78.83
2018-03-28T10:03:08.462Z,79.40
2018-03-28T10:03:44.756Z,78.25
2018-03-28T10:05:50.229Z,79.59
2018-03-28T10:06:49.677Z,80.73
2018-03-28T10:14:10.900Z,80.79
2018-03-28T10:16:28.211Z,79.74
2018-03-28T10:17:27.607Z,79.40
2018-03-28T10:20:08.626Z,79.46
2018-03-28T10:23:14.961Z,79.17
2018-03-28T10:26:04.019Z,78.69
2018-03-28T10:27:02.893Z,79.07
2018-03-28T10:28:06.183Z,79.17
2018-03-28T10:29:03.469Z,79.68
2018-03-28T10:30:04.855Z,80.54
2018-03-28T10:33:07.859Z,77.97
2018-03-28T10:34:06.139Z,80.73
2018-03-28T10:35:07.607Z,80.64
2018-03-28T10:36:08.202Z,81.88
2018-03-28T10:37:05.981Z,81.06
2018-03-28T10:38:08.373Z,81.92
2018-03-28T10:39:07.686Z,82.20
2018-03-28T10:40:10.413Z,81.63
2018-03-28T10:41:05.615Z,80.68
2018-03-28T10:42:05.470Z,80.20
2018-03-28T10:43:05.550Z,80.77
2018-03-28T10:44:06.404Z,80.64
2018-03-28T10:45:06.369Z,82.83
2018-03-28T10:46:05.360Z,80.92
2018-03-28T10:47:05.494Z,79.88
2018-03-28T10:48:05.303Z,80.07
2018-03-28T10:49:05.274Z,80.16
2018-03-28T10:50:05.248Z,78.92
2018-03-28T10:51:05.213Z,79.78
2018-03-28T10:52:05.188Z,79.30
2018-03-28T10:53:05.157Z,79.40
2018-03-28T10:54:05.800Z,78.83
2018-03-28T10:55:05.104Z,79.21
2018-03-28T10:56:05.082Z,78.73
2018-03-28T10:57:05.106Z,78.83
2018-03-28T10:58:05.155Z,78.44
2018-03-28T10:59:04.995Z,77.20
2018-03-28T11:00:04.966Z,76.16
2018-03-28T11:01:04.946Z,75.55
2018-03-28T11:02:04.909Z,74.35
2018-03-28T11:03:04.878Z,71.64
2018-03-28T11:04:04.852Z,73.36
2018-03-28T11:05:04.831Z,71.36
2018-03-28T11:06:04.879Z,70.78
2018-03-28T11:07:04.777Z,70.12
2018-03-28T11:08:04.744Z,69.17
2018-03-28T11:09:04.719Z,69.35
2018-03-28T11:10:04.689Z,68.88
2018-03-28T11:11:04.660Z,68.30
2018-03-28T11:12:04.730Z,68.05
2018-03-28T11:13:04.607Z,67.29
2018-03-28T11:14:04.573Z,66.63
2018-03-28T11:15:05.377Z,69.39
2018-03-28T11:16:04.611Z,69.48
2018-03-28T11:17:04.484Z,68.63
2018-03-28T11:18:04.461Z,67.39
2018-03-28T11:19:04.435Z,66.15
2018-03-28T11:20:04.463Z,67.58
2018-03-28T11:21:04.374Z,66.15
2018-03-28T11:22:04.351Z,67.64
2018-03-28T11:23:04.319Z,65.92
2018-03-28T11:24:04.292Z,64.21
2018-03-28T11:25:04.272Z,65.36
2018-03-28T11:26:04.243Z,63.92
2018-03-28T11:27:04.212Z,62.88
2018-03-28T11:28:04.185Z,63.76
2018-03-28T11:29:04.158Z,66.34
2018-03-28T11:30:04.125Z,66.40
2018-03-28T11:31:04.093Z,66.21
2018-03-28T11:32:04.827Z,65.86
2018-03-28T11:33:04.045Z,66.53
2018-03-28T11:34:04.121Z,65.96
2018-03-28T11:35:03.985Z,68.40
2018-03-28T11:36:08.352Z,66.11
2018-03-28T11:39:04.504Z,66.02
2018-03-28T11:40:05.127Z,64.31
2018-03-28T11:42:42.101Z,65.45
2018-03-28T11:43:40.678Z,66.21
2018-03-28T11:45:46.114Z,67.35
2018-03-28T11:49:21.080Z,67.83
2018-03-28T11:50:19.330Z,67.07
2018-03-28T11:52:39.266Z,68.78
2018-03-28T11:53:39.609Z,66.50
2018-03-28T11:55:42.995Z,65.45
2018-03-28T11:56:43.866Z,64.40
2018-03-28T11:58:46.838Z,63.00
2018-03-28T11:59:46.320Z,63.00
2018-03-28T12:02:12.029Z,66.11
2018-03-28T12:03:12.400Z,66.59
2018-03-28T12:05:18.345Z,62.78
2018-03-28T12:08:22.334Z,64.59
2018-03-28T12:09:22.035Z,63.17
2018-03-28T12:12:58.983Z,62.88
2018-03-28T12:13:56.893Z,62.49
2018-03-28T12:16:13.516Z,58.78
2018-03-28T12:17:11.346Z,59.54
2018-03-28T12:18:11.287Z,60.88
2018-03-28T12:19:11.779Z,60.21
2018-03-28T12:20:11.188Z,58.69
2018-03-28T12:21:11.737Z,62.49
2018-03-28T12:22:11.295Z,60.30
2018-03-28T12:23:11.083Z,57.92
2018-03-28T12:24:12.306Z,60.30
2018-03-28T12:25:11.958Z,61.45
2018-03-28T12:26:12.284Z,62.40
2018-03-28T12:27:10.660Z,59.74
2018-03-28T12:28:11.622Z,61.45
2018-03-28T12:29:10.204Z,61.83
2018-03-28T12:30:09.967Z,62.49
2018-03-28T12:31:09.933Z,60.88
2018-03-28T12:32:09.967Z,59.74
2018-03-28T12:33:09.871Z,59.92
2018-03-28T12:34:09.841Z,60.30
2018-03-28T12:35:09.814Z,60.30
2018-03-28T12:36:09.927Z,60.40
2018-03-28T12:37:09.752Z,60.05
2018-03-28T12:38:09.793Z,59.57
2018-03-28T12:39:09.729Z,58.72
2018-03-28T12:40:09.671Z,58.43
2018-03-28T12:41:09.650Z,58.33
2018-03-28T12:42:09.637Z,57.67
2018-03-28T12:43:09.589Z,57.48
2018-03-28T12:44:09.560Z,58.43
2018-03-28T12:45:09.530Z,58.43
2018-03-28T12:46:09.501Z,57.57
2018-03-28T12:47:09.484Z,56.97
2018-03-28T12:48:09.505Z,56.21
2018-03-28T12:49:09.428Z,56.40
2018-03-28T12:50:09.490Z,55.63
2018-03-28T12:51:09.368Z,55.07
2018-03-28T12:52:09.401Z,54.88
2018-03-28T12:53:09.307Z,54.49
2018-03-28T12:54:09.449Z,52.68
2018-03-28T12:55:09.265Z,54.02
2018-03-28T12:56:09.261Z,52.59
2018-03-28T12:57:09.200Z,51.73
2018-03-28T12:58:09.168Z,51.82
2018-03-28T12:59:09.155Z,54.04
2018-03-28T13:00:09.117Z,55.85
2018-03-28T13:01:09.090Z,56.43
2018-03-28T13:02:09.061Z,55.76
2018-03-28T13:03:09.024Z,58.52
2018-03-28T13:04:08.999Z,59.48
2018-03-28T13:05:08.971Z,58.87
2018-03-28T13:06:08.961Z,58.72
2018-03-28T13:07:08.918Z,56.43
2018-03-28T13:08:08.935Z,57.54
2018-03-28T13:09:08.859Z,57.92
2018-03-28T13:10:08.850Z,55.95
2018-03-28T13:11:08.848Z,56.21
2018-03-28T13:12:08.780Z,55.26
2018-03-28T13:13:08.744Z,57.82
2018-03-28T13:14:08.720Z,56.40
2018-03-28T13:15:08.689Z,56.02
2018-03-28T13:16:08.658Z,55.54
2018-03-28T13:17:08.771Z,56.21
2018-03-28T13:18:08.599Z,55.54
2018-03-28T13:19:08.580Z,55.63
2018-03-28T13:20:10.394Z,54.68
2018-03-28T13:21:08.514Z,54.97
2018-03-28T13:22:08.496Z,54.49
2018-03-28T13:23:08.526Z,53.35
2018-03-28T13:24:08.480Z,54.47
2018-03-28T13:25:08.415Z,53.42
2018-03-28T13:26:08.377Z,53.13
2018-03-28T13:27:08.351Z,51.80
2018-03-28T13:28:08.326Z,50.21
2018-03-28T13:29:08.295Z,50.21
2018-03-28T13:30:08.358Z,49.35
2018-03-28T13:31:08.420Z,49.06
2018-03-28T13:32:08.207Z,49.63
2018-03-28T13:33:08.178Z,51.82
2018-03-28T13:34:08.148Z,56.18
2018-03-28T13:35:08.118Z,53.99
2018-03-28T13:36:08.093Z,52.09
2018-03-28T13:37:08.063Z,50.09
2018-03-28T13:38:08.033Z,50.30
2018-03-28T13:39:08.026Z,49.92
2018-03-28T13:40:08.067Z,50.11
2018-03-28T13:41:09.123Z,49.26
2018-03-28T13:43:57.196Z,53.61
2018-03-28T13:44:54.920Z,53.52